sensor_id;sensor_type;location;lat;lon;timestamp;P1;durP1;ratioP1;P2;durP2;ratioP2
14153;SDS011;7157;53.144;7.570;2023-01-29T00:02:18;13.15;;;6.72;;
14153;SDS011;7157;53.144;7.570;2023-01-29T00:12:22;12.05;;;5.95;;
14153;SDS011;7157;53.144;7.570;2023-01-29T00:22:25;11.50;;;5.38;;
14153;SDS011;7157;53.144;7.570;2023-01-29T00:32:29;17.50;;;6.60;;
14153;SDS011;7157;53.144;7.570;2023-01-29T00:42:33;12.57;;;6.43;;
14153;SDS011;7157;53.144;7.570;2023-01-29T00:52:55;12.47;;;6.17;;
14153;SDS011;7157;53.144;7.570;2023-01-29T01:02:57;12.90;;;6.20;;
14153;SDS011;7157;53.144;7.570;2023-01-29T01:13:07;16.23;;;6.45;;
14153;SDS011;7157;53.144;7.570;2023-01-29T01:23:10;12.32;;;6.53;;
14153;SDS011;7157;53.144;7.570;2023-01-29T01:33:14;12.07;;;6.72;;
14153;SDS011;7157;53.144;7.570;2023-01-29T01:43:17;15.75;;;7.97;;
14153;SDS011;7157;53.144;7.570;2023-01-29T01:53:21;14.05;;;6.30;;
14153;SDS011;7157;53.144;7.570;2023-01-29T02:03:29;15.38;;;7.30;;
14153;SDS011;7157;53.144;7.570;2023-01-29T02:13:55;15.70;;;7.90;;
14153;SDS011;7157;53.144;7.570;2023-01-29T02:24:10;16.05;;;7.57;;
14153;SDS011;7157;53.144;7.570;2023-01-29T02:34:32;14.48;;;7.97;;
14153;SDS011;7157;53.144;7.570;2023-01-29T02:45:01;14.75;;;8.00;;
14153;SDS011;7157;53.144;7.570;2023-01-29T02:55:11;16.77;;;8.38;;
14153;SDS011;7157;53.144;7.570;2023-01-29T03:05:19;14.68;;;8.45;;
14153;SDS011;7157;53.144;7.570;2023-01-29T03:15:34;22.02;;;10.95;;
14153;SDS011;7157;53.144;7.570;2023-01-29T03:25:42;13.50;;;8.13;;
14153;SDS011;7157;53.144;7.570;2023-01-29T03:36:06;16.23;;;8.85;;
14153;SDS011;7157;53.144;7.570;2023-01-29T03:46:16;23.00;;;10.10;;
14153;SDS011;7157;53.144;7.570;2023-01-29T03:56:33;19.73;;;9.45;;
14153;SDS011;7157;53.144;7.570;2023-01-29T04:06:46;22.95;;;11.30;;
14153;SDS011;7157;53.144;7.570;2023-01-29T04:16:54;20.40;;;11.48;;
14153;SDS011;7157;53.144;7.570;2023-01-29T04:27:11;21.92;;;11.00;;
14153;SDS011;7157;53.144;7.570;2023-01-29T04:37:27;24.40;;;12.15;;
14153;SDS011;7157;53.144;7.570;2023-01-29T04:47:39;26.45;;;12.43;;
14153;SDS011;7157;53.144;7.570;2023-01-29T04:57:51;23.00;;;11.20;;
14153;SDS011;7157;53.144;7.570;2023-01-29T05:07:59;24.20;;;10.97;;
14153;SDS011;7157;53.144;7.570;2023-01-29T05:18:04;19.27;;;10.85;;
14153;SDS011;7157;53.144;7.570;2023-01-29T05:28:09;21.90;;;11.63;;
14153;SDS011;7157;53.144;7.570;2023-01-29T05:38:18;22.60;;;10.00;;
14153;SDS011;7157;53.144;7.570;2023-01-29T05:48:21;24.55;;;12.07;;
14153;SDS011;7157;53.144;7.570;2023-01-29T05:58:26;26.45;;;12.63;;
14153;SDS011;7157;53.144;7.570;2023-01-29T06:08:28;25.25;;;12.35;;
14153;SDS011;7157;53.144;7.570;2023-01-29T06:18:32;28.92;;;13.18;;
14153;SDS011;7157;53.144;7.570;2023-01-29T06:28:36;24.13;;;12.18;;
14153;SDS011;7157;53.144;7.570;2023-01-29T06:38:40;21.08;;;11.60;;
14153;SDS011;7157;53.144;7.570;2023-01-29T06:48:43;30.27;;;15.18;;
14153;SDS011;7157;53.144;7.570;2023-01-29T06:58:47;29.33;;;14.77;;
14153;SDS011;7157;53.144;7.570;2023-01-29T07:08:50;33.28;;;15.23;;
14153;SDS011;7157;53.144;7.570;2023-01-29T07:18:54;26.90;;;13.48;;
14153;SDS011;7157;53.144;7.570;2023-01-29T07:28:56;23.20;;;12.13;;
14153;SDS011;7157;53.144;7.570;2023-01-29T07:39:00;23.10;;;11.70;;
14153;SDS011;7157;53.144;7.570;2023-01-29T07:49:03;26.77;;;13.27;;
14153;SDS011;7157;53.144;7.570;2023-01-29T07:59:07;23.48;;;12.27;;
14153;SDS011;7157;53.144;7.570;2023-01-29T08:09:10;20.92;;;11.50;;
14153;SDS011;7157;53.144;7.570;2023-01-29T08:19:14;22.98;;;11.18;;
14153;SDS011;7157;53.144;7.570;2023-01-29T08:29:17;19.60;;;10.30;;
14153;SDS011;7157;53.144;7.570;2023-01-29T08:39:21;20.90;;;11.15;;
14153;SDS011;7157;53.144;7.570;2023-01-29T08:49:23;18.88;;;11.52;;
14153;SDS011;7157;53.144;7.570;2023-01-29T08:59:27;18.38;;;9.85;;
14153;SDS011;7157;53.144;7.570;2023-01-29T09:09:30;21.20;;;10.90;;
14153;SDS011;7157;53.144;7.570;2023-01-29T09:19:34;22.42;;;12.90;;
14153;SDS011;7157;53.144;7.570;2023-01-29T09:29:37;24.67;;;12.18;;
14153;SDS011;7157;53.144;7.570;2023-01-29T09:39:41;16.67;;;9.75;;
14153;SDS011;7157;53.144;7.570;2023-01-29T09:49:44;21.95;;;11.80;;
14153;SDS011;7157;53.144;7.570;2023-01-29T09:59:52;16.85;;;8.68;;
14153;SDS011;7157;53.144;7.570;2023-01-29T10:20:34;18.48;;;9.90;;
14153;SDS011;7157;53.144;7.570;2023-01-29T10:30:55;18.85;;;10.68;;
14153;SDS011;7157;53.144;7.570;2023-01-29T10:41:05;20.27;;;11.13;;
14153;SDS011;7157;53.144;7.570;2023-01-29T10:51:26;24.20;;;12.43;;
14153;SDS011;7157;53.144;7.570;2023-01-29T11:01:43;24.08;;;13.60;;
14153;SDS011;7157;53.144;7.570;2023-01-29T11:11:46;28.55;;;12.70;;
14153;SDS011;7157;53.144;7.570;2023-01-29T11:21:55;27.15;;;12.90;;
14153;SDS011;7157;53.144;7.570;2023-01-29T11:31:59;18.63;;;9.88;;
14153;SDS011;7157;53.144;7.570;2023-01-29T11:42:13;19.13;;;10.77;;
14153;SDS011;7157;53.144;7.570;2023-01-29T11:52:21;26.30;;;12.18;;
14153;SDS011;7157;53.144;7.570;2023-01-29T12:02:28;20.90;;;12.50;;
14153;SDS011;7157;53.144;7.570;2023-01-29T12:12:36;21.27;;;11.05;;
14153;SDS011;7157;53.144;7.570;2023-01-29T12:22:44;29.63;;;14.82;;
14153;SDS011;7157;53.144;7.570;2023-01-29T12:32:54;19.13;;;11.17;;
14153;SDS011;7157;53.144;7.570;2023-01-29T12:43:03;28.13;;;13.50;;
14153;SDS011;7157;53.144;7.570;2023-01-29T12:53:22;31.90;;;16.67;;
14153;SDS011;7157;53.144;7.570;2023-01-29T13:03:31;25.05;;;13.95;;
14153;SDS011;7157;53.144;7.570;2023-01-29T13:13:48;30.58;;;15.05;;
14153;SDS011;7157;53.144;7.570;2023-01-29T13:23:58;25.88;;;13.48;;
14153;SDS011;7157;53.144;7.570;2023-01-29T13:34:11;28.13;;;13.63;;
14153;SDS011;7157;53.144;7.570;2023-01-29T13:44:22;24.05;;;12.02;;
14153;SDS011;7157;53.144;7.570;2023-01-29T13:54:27;25.30;;;14.90;;
14153;SDS011;7157;53.144;7.570;2023-01-29T14:04:32;23.35;;;12.60;;
14153;SDS011;7157;53.144;7.570;2023-01-29T14:14:49;24.45;;;13.30;;
14153;SDS011;7157;53.144;7.570;2023-01-29T14:25:02;20.02;;;11.82;;
14153;SDS011;7157;53.144;7.570;2023-01-29T14:35:09;28.88;;;13.57;;
14153;SDS011;7157;53.144;7.570;2023-01-29T14:45:25;26.42;;;13.32;;
14153;SDS011;7157;53.144;7.570;2023-01-29T14:55:30;24.50;;;12.90;;
14153;SDS011;7157;53.144;7.570;2023-01-29T15:05:40;29.52;;;14.57;;
14153;SDS011;7157;53.144;7.570;2023-01-29T15:15:45;26.42;;;12.82;;
14153;SDS011;7157;53.144;7.570;2023-01-29T15:25:52;30.08;;;14.63;;
14153;SDS011;7157;53.144;7.570;2023-01-29T15:35:58;26.33;;;12.02;;
14153;SDS011;7157;53.144;7.570;2023-01-29T15:46:11;28.60;;;15.10;;
14153;SDS011;7157;53.144;7.570;2023-01-29T15:56:22;23.88;;;13.50;;
14153;SDS011;7157;53.144;7.570;2023-01-29T16:06:29;30.13;;;15.05;;
14153;SDS011;7157;53.144;7.570;2023-01-29T16:16:37;37.05;;;18.13;;
14153;SDS011;7157;53.144;7.570;2023-01-29T16:26:42;47.50;;;20.20;;
14153;SDS011;7157;53.144;7.570;2023-01-29T16:36:47;38.28;;;18.95;;
14153;SDS011;7157;53.144;7.570;2023-01-29T16:46:55;32.35;;;16.45;;
14153;SDS011;7157;53.144;7.570;2023-01-29T16:56:58;37.55;;;17.60;;
14153;SDS011;7157;53.144;7.570;2023-01-29T17:07:03;36.92;;;17.80;;
14153;SDS011;7157;53.144;7.570;2023-01-29T17:17:11;41.85;;;19.65;;
14153;SDS011;7157;53.144;7.570;2023-01-29T17:27:19;35.78;;;17.00;;
14153;SDS011;7157;53.144;7.570;2023-01-29T17:37:22;49.03;;;19.63;;
14153;SDS011;7157;53.144;7.570;2023-01-29T17:47:26;30.35;;;14.77;;
14153;SDS011;7157;53.144;7.570;2023-01-29T17:57:29;33.92;;;16.77;;
14153;SDS011;7157;53.144;7.570;2023-01-29T18:07:34;34.42;;;17.27;;
14153;SDS011;7157;53.144;7.570;2023-01-29T18:17:38;46.25;;;18.10;;
14153;SDS011;7157;53.144;7.570;2023-01-29T18:27:42;42.75;;;18.48;;
14153;SDS011;7157;53.144;7.570;2023-01-29T18:37:45;38.60;;;17.80;;
14153;SDS011;7157;53.144;7.570;2023-01-29T18:47:49;36.85;;;16.83;;
14153;SDS011;7157;53.144;7.570;2023-01-29T18:57:52;34.00;;;17.48;;
14153;SDS011;7157;53.144;7.570;2023-01-29T19:08:16;46.85;;;19.25;;
14153;SDS011;7157;53.144;7.570;2023-01-29T19:18:19;34.80;;;17.23;;
14153;SDS011;7157;53.144;7.570;2023-01-29T19:28:23;30.85;;;16.60;;
14153;SDS011;7157;53.144;7.570;2023-01-29T19:38:26;38.08;;;18.30;;
14153;SDS011;7157;53.144;7.570;2023-01-29T19:48:35;46.45;;;18.50;;
14153;SDS011;7157;53.144;7.570;2023-01-29T19:58:38;36.05;;;16.55;;
14153;SDS011;7157;53.144;7.570;2023-01-29T20:08:42;37.90;;;17.98;;
14153;SDS011;7157;53.144;7.570;2023-01-29T20:18:46;35.45;;;16.95;;
14153;SDS011;7157;53.144;7.570;2023-01-29T20:28:50;40.90;;;17.30;;
14153;SDS011;7157;53.144;7.570;2023-01-29T20:38:53;44.95;;;17.48;;
14153;SDS011;7157;53.144;7.570;2023-01-29T20:48:58;39.45;;;17.67;;
14153;SDS011;7157;53.144;7.570;2023-01-29T20:59:01;40.85;;;17.05;;
14153;SDS011;7157;53.144;7.570;2023-01-29T21:09:05;42.42;;;17.45;;
14153;SDS011;7157;53.144;7.570;2023-01-29T21:19:08;29.48;;;13.52;;
14153;SDS011;7157;53.144;7.570;2023-01-29T21:29:15;30.77;;;14.98;;
14153;SDS011;7157;53.144;7.570;2023-01-29T21:39:18;36.13;;;15.82;;
14153;SDS011;7157;53.144;7.570;2023-01-29T21:49:27;45.05;;;17.73;;
14153;SDS011;7157;53.144;7.570;2023-01-29T21:59:29;31.90;;;14.90;;
14153;SDS011;7157;53.144;7.570;2023-01-29T22:09:34;38.38;;;17.15;;
14153;SDS011;7157;53.144;7.570;2023-01-29T22:19:37;40.35;;;16.67;;
14153;SDS011;7157;53.144;7.570;2023-01-29T22:29:41;41.08;;;17.27;;
14153;SDS011;7157;53.144;7.570;2023-01-29T22:39:44;31.02;;;15.38;;
14153;SDS011;7157;53.144;7.570;2023-01-29T22:49:48;45.83;;;14.35;;
14153;SDS011;7157;53.144;7.570;2023-01-29T22:59:52;41.00;;;17.42;;
14153;SDS011;7157;53.144;7.570;2023-01-29T23:09:56;35.03;;;14.80;;
14153;SDS011;7157;53.144;7.570;2023-01-29T23:19:59;31.80;;;16.35;;
14153;SDS011;7157;53.144;7.570;2023-01-29T23:30:03;33.30;;;14.38;;
14153;SDS011;7157;53.144;7.570;2023-01-29T23:40:08;27.15;;;13.65;;
14153;SDS011;7157;53.144;7.570;2023-01-29T23:50:13;30.35;;;14.63;;
